sensor_id;sensor_type;location;lat;lon;timestamp;P1;durP1;ratioP1;P2;durP2;ratioP2
68921;SDS011;55959;51.244;5.724;2023-03-21T00:00:34;8.53;;;5.67;;
68921;SDS011;55959;51.244;5.724;2023-03-21T00:02:59;12.03;;;6.13;;
68921;SDS011;55959;51.244;5.724;2023-03-21T00:05:26;9.03;;;5.73;;
68921;SDS011;55959;51.244;5.724;2023-03-21T00:07:52;6.60;;;4.97;;
68921;SDS011;55959;51.244;5.724;2023-03-21T00:10:18;7.83;;;4.60;;
68921;SDS011;55959;51.244;5.724;2023-03-21T00:12:44;7.57;;;5.30;;
68921;SDS011;55959;51.244;5.724;2023-03-21T00:15:10;8.23;;;5.87;;
68921;SDS011;55959;51.244;5.724;2023-03-21T00:17:37;9.13;;;6.00;;
68921;SDS011;55959;51.244;5.724;2023-03-21T00:20:04;8.97;;;5.93;;
68921;SDS011;55959;51.244;5.724;2023-03-21T00:22:39;7.33;;;5.20;;
68921;SDS011;55959;51.244;5.724;2023-03-21T00:25:06;8.30;;;4.90;;
68921;SDS011;55959;51.244;5.724;2023-03-21T00:27:34;6.57;;;4.57;;
68921;SDS011;55959;51.244;5.724;2023-03-21T00:30:00;6.60;;;4.70;;
68921;SDS011;55959;51.244;5.724;2023-03-21T00:32:26;9.97;;;5.03;;
68921;SDS011;55959;51.244;5.724;2023-03-21T00:34:52;8.77;;;5.53;;
68921;SDS011;55959;51.244;5.724;2023-03-21T00:37:18;7.57;;;4.70;;
68921;SDS011;55959;51.244;5.724;2023-03-21T00:39:45;7.10;;;4.53;;
68921;SDS011;55959;51.244;5.724;2023-03-21T00:42:16;8.33;;;4.60;;
68921;SDS011;55959;51.244;5.724;2023-03-21T00:44:42;6.70;;;5.10;;
68921;SDS011;55959;51.244;5.724;2023-03-21T00:47:11;7.67;;;4.83;;
68921;SDS011;55959;51.244;5.724;2023-03-21T00:49:37;6.77;;;4.80;;
68921;SDS011;55959;51.244;5.724;2023-03-21T00:52:04;6.60;;;4.90;;
68921;SDS011;55959;51.244;5.724;2023-03-21T00:54:33;7.23;;;4.70;;
68921;SDS011;55959;51.244;5.724;2023-03-21T00:57:00;6.33;;;4.70;;
68921;SDS011;55959;51.244;5.724;2023-03-21T00:59:27;6.27;;;4.80;;
68921;SDS011;55959;51.244;5.724;2023-03-21T01:01:53;7.13;;;4.50;;
68921;SDS011;55959;51.244;5.724;2023-03-21T01:04:20;7.07;;;4.90;;
68921;SDS011;55959;51.244;5.724;2023-03-21T01:06:50;6.70;;;4.40;;
68921;SDS011;55959;51.244;5.724;2023-03-21T01:09:22;6.73;;;5.07;;
68921;SDS011;55959;51.244;5.724;2023-03-21T01:11:49;6.07;;;4.70;;
68921;SDS011;55959;51.244;5.724;2023-03-21T01:14:17;8.03;;;4.77;;
68921;SDS011;55959;51.244;5.724;2023-03-21T01:16:44;7.00;;;4.77;;
68921;SDS011;55959;51.244;5.724;2023-03-21T01:19:11;7.37;;;4.77;;
68921;SDS011;55959;51.244;5.724;2023-03-21T01:21:40;7.87;;;5.00;;
68921;SDS011;55959;51.244;5.724;2023-03-21T01:24:07;7.83;;;5.30;;
68921;SDS011;55959;51.244;5.724;2023-03-21T01:26:33;6.20;;;4.63;;
68921;SDS011;55959;51.244;5.724;2023-03-21T01:29:01;7.53;;;4.57;;
68921;SDS011;55959;51.244;5.724;2023-03-21T01:31:28;6.63;;;4.67;;
68921;SDS011;55959;51.244;5.724;2023-03-21T01:33:54;8.47;;;4.97;;
68921;SDS011;55959;51.244;5.724;2023-03-21T01:36:21;7.43;;;4.90;;
68921;SDS011;55959;51.244;5.724;2023-03-21T01:38:51;8.40;;;5.30;;
68921;SDS011;55959;51.244;5.724;2023-03-21T01:41:19;7.77;;;5.23;;
68921;SDS011;55959;51.244;5.724;2023-03-21T01:43:56;6.77;;;5.03;;
68921;SDS011;55959;51.244;5.724;2023-03-21T01:46:37;5.03;;;4.53;;
68921;SDS011;55959;51.244;5.724;2023-03-21T01:49:20;6.67;;;5.00;;
68921;SDS011;55959;51.244;5.724;2023-03-21T01:51:52;7.83;;;4.70;;
68921;SDS011;55959;51.244;5.724;2023-03-21T01:54:23;8.43;;;5.27;;
68921;SDS011;55959;51.244;5.724;2023-03-21T01:56:56;5.77;;;4.60;;
68921;SDS011;55959;51.244;5.724;2023-03-21T02:01:56;7.90;;;5.03;;
68921;SDS011;55959;51.244;5.724;2023-03-21T02:04:31;7.23;;;4.90;;
68921;SDS011;55959;51.244;5.724;2023-03-21T02:07:10;6.73;;;5.00;;
68921;SDS011;55959;51.244;5.724;2023-03-21T02:09:44;6.90;;;4.57;;
68921;SDS011;55959;51.244;5.724;2023-03-21T02:12:13;8.33;;;5.40;;
68921;SDS011;55959;51.244;5.724;2023-03-21T02:14:40;6.47;;;4.80;;
68921;SDS011;55959;51.244;5.724;2023-03-21T02:20:09;7.13;;;4.97;;
68921;SDS011;55959;51.244;5.724;2023-03-21T02:28:56;10.73;;;6.20;;
68921;SDS011;55959;51.244;5.724;2023-03-21T02:34:56;8.00;;;5.17;;
68921;SDS011;55959;51.244;5.724;2023-03-21T02:37:47;8.80;;;5.83;;
68921;SDS011;55959;51.244;5.724;2023-03-21T02:40:33;7.87;;;4.73;;
68921;SDS011;55959;51.244;5.724;2023-03-21T02:48:55;11.47;;;5.93;;
68921;SDS011;55959;51.244;5.724;2023-03-21T02:51:27;7.33;;;5.47;;
68921;SDS011;55959;51.244;5.724;2023-03-21T02:53:57;8.03;;;5.03;;
68921;SDS011;55959;51.244;5.724;2023-03-21T02:56:28;7.50;;;5.13;;
68921;SDS011;55959;51.244;5.724;2023-03-21T02:58:57;6.97;;;4.70;;
68921;SDS011;55959;51.244;5.724;2023-03-21T03:01:24;8.73;;;4.87;;
68921;SDS011;55959;51.244;5.724;2023-03-21T03:03:51;8.83;;;5.27;;
68921;SDS011;55959;51.244;5.724;2023-03-21T03:06:24;5.57;;;4.63;;
68921;SDS011;55959;51.244;5.724;2023-03-21T03:15:49;5.50;;;4.97;;
68921;SDS011;55959;51.244;5.724;2023-03-21T03:18:56;7.07;;;4.83;;
68921;SDS011;55959;51.244;5.724;2023-03-21T03:21:32;5.97;;;4.20;;
68921;SDS011;55959;51.244;5.724;2023-03-21T03:24:21;6.93;;;4.70;;
68921;SDS011;55959;51.244;5.724;2023-03-21T03:27:02;7.23;;;4.50;;
68921;SDS011;55959;51.244;5.724;2023-03-21T03:29:34;7.40;;;4.83;;
68921;SDS011;55959;51.244;5.724;2023-03-21T03:32:06;5.83;;;4.57;;
68921;SDS011;55959;51.244;5.724;2023-03-21T03:34:41;5.87;;;4.77;;
68921;SDS011;55959;51.244;5.724;2023-03-21T03:37:20;6.40;;;4.53;;
68921;SDS011;55959;51.244;5.724;2023-03-21T03:39:59;7.13;;;4.60;;
68921;SDS011;55959;51.244;5.724;2023-03-21T03:42:37;5.93;;;4.80;;
68921;SDS011;55959;51.244;5.724;2023-03-21T03:45:09;7.80;;;4.50;;
68921;SDS011;55959;51.244;5.724;2023-03-21T03:47:46;7.70;;;4.43;;
68921;SDS011;55959;51.244;5.724;2023-03-21T03:52:54;6.40;;;4.43;;
68921;SDS011;55959;51.244;5.724;2023-03-21T03:55:31;7.17;;;4.43;;
68921;SDS011;55959;51.244;5.724;2023-03-21T03:57:59;5.17;;;3.80;;
68921;SDS011;55959;51.244;5.724;2023-03-21T04:00:26;6.33;;;5.00;;
68921;SDS011;55959;51.244;5.724;2023-03-21T04:02:56;5.90;;;4.27;;
68921;SDS011;55959;51.244;5.724;2023-03-21T04:05:23;6.63;;;4.87;;
68921;SDS011;55959;51.244;5.724;2023-03-21T04:07:50;8.70;;;5.30;;
68921;SDS011;55959;51.244;5.724;2023-03-21T04:10:17;7.27;;;4.67;;
68921;SDS011;55959;51.244;5.724;2023-03-21T04:12:43;6.30;;;3.73;;
68921;SDS011;55959;51.244;5.724;2023-03-21T04:15:09;7.87;;;4.73;;
68921;SDS011;55959;51.244;5.724;2023-03-21T04:17:36;5.63;;;4.20;;
68921;SDS011;55959;51.244;5.724;2023-03-21T04:20:03;6.67;;;4.47;;
68921;SDS011;55959;51.244;5.724;2023-03-21T04:22:31;7.63;;;4.57;;
68921;SDS011;55959;51.244;5.724;2023-03-21T04:24:58;8.97;;;4.87;;
68921;SDS011;55959;51.244;5.724;2023-03-21T04:27:29;8.33;;;4.20;;
68921;SDS011;55959;51.244;5.724;2023-03-21T04:29:56;6.50;;;4.40;;
68921;SDS011;55959;51.244;5.724;2023-03-21T04:32:23;6.40;;;4.30;;
68921;SDS011;55959;51.244;5.724;2023-03-21T04:34:50;8.20;;;5.03;;
68921;SDS011;55959;51.244;5.724;2023-03-21T04:37:18;5.37;;;4.70;;
68921;SDS011;55959;51.244;5.724;2023-03-21T04:39:47;8.37;;;5.67;;
68921;SDS011;55959;51.244;5.724;2023-03-21T04:42:15;10.07;;;4.50;;
68921;SDS011;55959;51.244;5.724;2023-03-21T04:44:43;5.77;;;4.40;;
68921;SDS011;55959;51.244;5.724;2023-03-21T04:47:09;7.17;;;4.47;;
68921;SDS011;55959;51.244;5.724;2023-03-21T04:49:37;7.07;;;4.50;;
68921;SDS011;55959;51.244;5.724;2023-03-21T04:52:03;5.00;;;3.90;;
68921;SDS011;55959;51.244;5.724;2023-03-21T04:54:29;8.20;;;4.43;;
68921;SDS011;55959;51.244;5.724;2023-03-21T04:56:56;7.13;;;4.67;;
68921;SDS011;55959;51.244;5.724;2023-03-21T04:59:23;6.13;;;3.80;;
68921;SDS011;55959;51.244;5.724;2023-03-21T05:01:48;7.30;;;4.13;;
68921;SDS011;55959;51.244;5.724;2023-03-21T05:04:14;7.60;;;4.10;;
68921;SDS011;55959;51.244;5.724;2023-03-21T05:06:40;6.53;;;4.57;;
68921;SDS011;55959;51.244;5.724;2023-03-21T05:09:06;7.07;;;3.80;;
68921;SDS011;55959;51.244;5.724;2023-03-21T05:11:33;7.60;;;3.73;;
68921;SDS011;55959;51.244;5.724;2023-03-21T05:14:05;5.13;;;3.47;;
68921;SDS011;55959;51.244;5.724;2023-03-21T05:16:34;4.10;;;3.00;;
68921;SDS011;55959;51.244;5.724;2023-03-21T05:19:00;5.80;;;3.10;;
68921;SDS011;55959;51.244;5.724;2023-03-21T05:21:28;4.60;;;3.17;;
68921;SDS011;55959;51.244;5.724;2023-03-21T05:24:09;6.00;;;3.77;;
68921;SDS011;55959;51.244;5.724;2023-03-21T05:26:41;7.43;;;3.40;;
68921;SDS011;55959;51.244;5.724;2023-03-21T05:29:08;5.23;;;2.83;;
68921;SDS011;55959;51.244;5.724;2023-03-21T05:31:35;4.60;;;2.53;;
68921;SDS011;55959;51.244;5.724;2023-03-21T05:34:01;6.07;;;3.33;;
68921;SDS011;55959;51.244;5.724;2023-03-21T05:36:27;4.53;;;3.10;;
68921;SDS011;55959;51.244;5.724;2023-03-21T05:38:53;3.67;;;2.90;;
68921;SDS011;55959;51.244;5.724;2023-03-21T05:41:19;5.70;;;2.60;;
68921;SDS011;55959;51.244;5.724;2023-03-21T05:43:45;6.50;;;2.83;;
68921;SDS011;55959;51.244;5.724;2023-03-21T05:46:11;6.67;;;3.17;;
68921;SDS011;55959;51.244;5.724;2023-03-21T05:48:37;6.60;;;3.43;;
68921;SDS011;55959;51.244;5.724;2023-03-21T05:51:04;6.07;;;3.40;;
68921;SDS011;55959;51.244;5.724;2023-03-21T05:53:30;4.93;;;3.10;;
68921;SDS011;55959;51.244;5.724;2023-03-21T05:55:56;4.87;;;2.80;;
68921;SDS011;55959;51.244;5.724;2023-03-21T05:58:21;6.60;;;3.43;;
68921;SDS011;55959;51.244;5.724;2023-03-21T06:00:47;7.10;;;3.43;;
68921;SDS011;55959;51.244;5.724;2023-03-21T06:03:13;6.03;;;3.53;;
68921;SDS011;55959;51.244;5.724;2023-03-21T06:05:40;6.57;;;3.50;;
68921;SDS011;55959;51.244;5.724;2023-03-21T06:08:06;6.53;;;3.53;;
68921;SDS011;55959;51.244;5.724;2023-03-21T06:10:31;6.00;;;3.33;;
68921;SDS011;55959;51.244;5.724;2023-03-21T06:12:57;7.73;;;3.53;;
68921;SDS011;55959;51.244;5.724;2023-03-21T06:15:23;6.40;;;3.47;;
68921;SDS011;55959;51.244;5.724;2023-03-21T06:17:48;8.13;;;4.20;;
68921;SDS011;55959;51.244;5.724;2023-03-21T06:20:14;6.83;;;3.33;;
68921;SDS011;55959;51.244;5.724;2023-03-21T06:22:40;6.47;;;3.37;;
68921;SDS011;55959;51.244;5.724;2023-03-21T06:25:06;6.33;;;3.30;;
68921;SDS011;55959;51.244;5.724;2023-03-21T06:27:33;4.87;;;3.50;;
68921;SDS011;55959;51.244;5.724;2023-03-21T06:29:59;5.40;;;3.20;;
68921;SDS011;55959;51.244;5.724;2023-03-21T06:32:25;6.10;;;3.30;;
68921;SDS011;55959;51.244;5.724;2023-03-21T06:34:51;5.53;;;3.20;;
68921;SDS011;55959;51.244;5.724;2023-03-21T06:37:17;10.30;;;4.30;;
68921;SDS011;55959;51.244;5.724;2023-03-21T06:39:43;5.10;;;3.23;;
68921;SDS011;55959;51.244;5.724;2023-03-21T06:42:10;6.20;;;3.83;;
68921;SDS011;55959;51.244;5.724;2023-03-21T06:44:37;9.87;;;3.60;;
68921;SDS011;55959;51.244;5.724;2023-03-21T06:47:03;4.87;;;3.37;;
68921;SDS011;55959;51.244;5.724;2023-03-21T06:49:29;7.10;;;3.87;;
68921;SDS011;55959;51.244;5.724;2023-03-21T06:51:55;6.23;;;3.53;;
68921;SDS011;55959;51.244;5.724;2023-03-21T06:54:21;6.83;;;3.77;;
68921;SDS011;55959;51.244;5.724;2023-03-21T06:56:46;5.83;;;4.20;;
68921;SDS011;55959;51.244;5.724;2023-03-21T06:59:12;7.47;;;4.33;;
68921;SDS011;55959;51.244;5.724;2023-03-21T07:01:38;6.70;;;3.80;;
68921;SDS011;55959;51.244;5.724;2023-03-21T07:04:04;9.67;;;4.37;;
68921;SDS011;55959;51.244;5.724;2023-03-21T07:06:30;8.87;;;4.30;;
68921;SDS011;55959;51.244;5.724;2023-03-21T07:08:56;8.27;;;4.73;;
68921;SDS011;55959;51.244;5.724;2023-03-21T07:11:23;5.73;;;4.07;;
68921;SDS011;55959;51.244;5.724;2023-03-21T07:13:50;6.70;;;4.43;;
68921;SDS011;55959;51.244;5.724;2023-03-21T07:16:17;8.97;;;4.03;;
68921;SDS011;55959;51.244;5.724;2023-03-21T07:18:45;8.07;;;4.27;;
68921;SDS011;55959;51.244;5.724;2023-03-21T07:21:11;5.60;;;4.17;;
68921;SDS011;55959;51.244;5.724;2023-03-21T07:23:38;5.97;;;4.57;;
68921;SDS011;55959;51.244;5.724;2023-03-21T07:26:04;5.60;;;4.63;;
68921;SDS011;55959;51.244;5.724;2023-03-21T07:28:30;6.80;;;4.00;;
68921;SDS011;55959;51.244;5.724;2023-03-21T07:30:58;6.30;;;3.70;;
68921;SDS011;55959;51.244;5.724;2023-03-21T07:33:28;7.07;;;3.43;;
68921;SDS011;55959;51.244;5.724;2023-03-21T07:35:55;4.73;;;3.10;;
68921;SDS011;55959;51.244;5.724;2023-03-21T07:38:24;5.80;;;2.73;;
68921;SDS011;55959;51.244;5.724;2023-03-21T07:40:51;3.63;;;2.70;;
68921;SDS011;55959;51.244;5.724;2023-03-21T07:43:17;6.97;;;3.10;;
68921;SDS011;55959;51.244;5.724;2023-03-21T07:45:45;3.33;;;2.47;;
68921;SDS011;55959;51.244;5.724;2023-03-21T07:48:11;7.67;;;2.80;;
68921;SDS011;55959;51.244;5.724;2023-03-21T07:50:38;4.83;;;2.40;;
68921;SDS011;55959;51.244;5.724;2023-03-21T07:53:05;4.77;;;2.47;;
68921;SDS011;55959;51.244;5.724;2023-03-21T07:55:31;4.63;;;2.87;;
68921;SDS011;55959;51.244;5.724;2023-03-21T07:58:00;4.50;;;2.37;;
68921;SDS011;55959;51.244;5.724;2023-03-21T08:00:28;3.90;;;2.57;;
68921;SDS011;55959;51.244;5.724;2023-03-21T08:02:55;5.90;;;3.20;;
68921;SDS011;55959;51.244;5.724;2023-03-21T08:05:22;5.27;;;2.70;;
68921;SDS011;55959;51.244;5.724;2023-03-21T08:07:54;5.00;;;2.50;;
68921;SDS011;55959;51.244;5.724;2023-03-21T08:10:20;5.20;;;2.83;;
68921;SDS011;55959;51.244;5.724;2023-03-21T08:12:46;5.53;;;2.83;;
68921;SDS011;55959;51.244;5.724;2023-03-21T08:15:12;6.63;;;3.17;;
68921;SDS011;55959;51.244;5.724;2023-03-21T08:17:39;3.73;;;2.63;;
68921;SDS011;55959;51.244;5.724;2023-03-21T08:20:09;7.73;;;3.10;;
68921;SDS011;55959;51.244;5.724;2023-03-21T08:22:39;6.87;;;2.77;;
68921;SDS011;55959;51.244;5.724;2023-03-21T08:25:06;5.37;;;3.10;;
68921;SDS011;55959;51.244;5.724;2023-03-21T08:27:34;6.63;;;3.50;;
68921;SDS011;55959;51.244;5.724;2023-03-21T08:30:00;6.13;;;3.10;;
68921;SDS011;55959;51.244;5.724;2023-03-21T08:32:26;5.83;;;3.50;;
68921;SDS011;55959;51.244;5.724;2023-03-21T08:34:56;5.50;;;3.40;;
68921;SDS011;55959;51.244;5.724;2023-03-21T08:37:23;6.97;;;2.97;;
68921;SDS011;55959;51.244;5.724;2023-03-21T08:39:50;7.63;;;3.80;;
68921;SDS011;55959;51.244;5.724;2023-03-21T08:42:17;9.10;;;4.30;;
68921;SDS011;55959;51.244;5.724;2023-03-21T08:44:43;7.70;;;3.67;;
68921;SDS011;55959;51.244;5.724;2023-03-21T08:47:09;7.20;;;3.77;;
68921;SDS011;55959;51.244;5.724;2023-03-21T08:49:35;6.97;;;3.57;;
68921;SDS011;55959;51.244;5.724;2023-03-21T08:52:01;6.90;;;3.90;;
68921;SDS011;55959;51.244;5.724;2023-03-21T08:54:27;8.57;;;4.07;;
68921;SDS011;55959;51.244;5.724;2023-03-21T08:56:53;3.97;;;3.37;;
68921;SDS011;55959;51.244;5.724;2023-03-21T08:59:19;6.87;;;3.90;;
68921;SDS011;55959;51.244;5.724;2023-03-21T09:01:45;7.90;;;3.73;;
68921;SDS011;55959;51.244;5.724;2023-03-21T09:04:11;6.93;;;3.67;;
68921;SDS011;55959;51.244;5.724;2023-03-21T09:06:37;5.67;;;3.13;;
68921;SDS011;55959;51.244;5.724;2023-03-21T09:09:09;6.03;;;3.80;;
68921;SDS011;55959;51.244;5.724;2023-03-21T09:11:36;5.53;;;3.50;;
68921;SDS011;55959;51.244;5.724;2023-03-21T09:14:02;6.77;;;3.30;;
68921;SDS011;55959;51.244;5.724;2023-03-21T09:16:29;5.90;;;3.27;;
68921;SDS011;55959;51.244;5.724;2023-03-21T09:18:55;6.20;;;3.20;;
68921;SDS011;55959;51.244;5.724;2023-03-21T09:21:23;6.40;;;2.73;;
68921;SDS011;55959;51.244;5.724;2023-03-21T09:23:51;6.70;;;3.03;;
68921;SDS011;55959;51.244;5.724;2023-03-21T09:26:20;4.30;;;2.77;;
68921;SDS011;55959;51.244;5.724;2023-03-21T09:28:47;5.27;;;2.80;;
68921;SDS011;55959;51.244;5.724;2023-03-21T09:31:14;5.67;;;2.87;;
68921;SDS011;55959;51.244;5.724;2023-03-21T09:33:47;5.40;;;3.03;;
68921;SDS011;55959;51.244;5.724;2023-03-21T09:36:14;6.00;;;2.80;;
68921;SDS011;55959;51.244;5.724;2023-03-21T09:38:42;6.03;;;3.07;;
68921;SDS011;55959;51.244;5.724;2023-03-21T09:44:33;3.90;;;2.80;;
68921;SDS011;55959;51.244;5.724;2023-03-21T09:49:57;5.97;;;3.70;;
68921;SDS011;55959;51.244;5.724;2023-03-21T09:53:02;6.63;;;3.30;;
68921;SDS011;55959;51.244;5.724;2023-03-21T09:55:23;8.40;;;3.83;;
68921;SDS011;55959;51.244;5.724;2023-03-21T10:00:32;6.90;;;3.30;;
68921;SDS011;55959;51.244;5.724;2023-03-21T10:03:05;6.40;;;3.27;;
68921;SDS011;55959;51.244;5.724;2023-03-21T10:05:42;8.43;;;3.40;;
68921;SDS011;55959;51.244;5.724;2023-03-21T10:08:17;5.27;;;3.10;;
68921;SDS011;55959;51.244;5.724;2023-03-21T10:10:54;5.77;;;3.57;;
68921;SDS011;55959;51.244;5.724;2023-03-21T10:13:28;6.20;;;3.40;;
68921;SDS011;55959;51.244;5.724;2023-03-21T10:19:09;6.27;;;3.80;;
68921;SDS011;55959;51.244;5.724;2023-03-21T10:21:39;6.70;;;3.77;;
68921;SDS011;55959;51.244;5.724;2023-03-21T10:24:13;5.30;;;3.60;;
68921;SDS011;55959;51.244;5.724;2023-03-21T10:26:49;6.40;;;3.60;;
68921;SDS011;55959;51.244;5.724;2023-03-21T10:29:17;5.27;;;3.87;;
68921;SDS011;55959;51.244;5.724;2023-03-21T10:31:47;6.00;;;3.73;;
68921;SDS011;55959;51.244;5.724;2023-03-21T10:34:15;5.30;;;3.23;;
68921;SDS011;55959;51.244;5.724;2023-03-21T10:36:48;5.73;;;3.07;;
68921;SDS011;55959;51.244;5.724;2023-03-21T10:39:23;5.17;;;2.97;;
68921;SDS011;55959;51.244;5.724;2023-03-21T10:41:58;6.23;;;3.57;;
68921;SDS011;55959;51.244;5.724;2023-03-21T10:44:28;5.33;;;3.00;;
68921;SDS011;55959;51.244;5.724;2023-03-21T10:47:06;5.30;;;3.20;;
68921;SDS011;55959;51.244;5.724;2023-03-21T10:49:34;5.27;;;3.10;;
68921;SDS011;55959;51.244;5.724;2023-03-21T10:52:03;5.47;;;3.33;;
68921;SDS011;55959;51.244;5.724;2023-03-21T10:54:34;5.07;;;3.90;;
68921;SDS011;55959;51.244;5.724;2023-03-21T10:57:19;6.23;;;3.40;;
68921;SDS011;55959;51.244;5.724;2023-03-21T10:59:54;5.73;;;3.43;;
68921;SDS011;55959;51.244;5.724;2023-03-21T11:02:24;4.30;;;2.60;;
68921;SDS011;55959;51.244;5.724;2023-03-21T11:05:02;4.17;;;2.43;;
68921;SDS011;55959;51.244;5.724;2023-03-21T11:07:58;7.67;;;3.57;;
68921;SDS011;55959;51.244;5.724;2023-03-21T11:10:29;7.33;;;3.47;;
68921;SDS011;55959;51.244;5.724;2023-03-21T11:13:01;6.50;;;3.10;;
68921;SDS011;55959;51.244;5.724;2023-03-21T11:18:23;5.60;;;3.00;;
68921;SDS011;55959;51.244;5.724;2023-03-21T11:23:20;6.47;;;3.33;;
68921;SDS011;55959;51.244;5.724;2023-03-21T11:25:50;5.60;;;2.80;;
68921;SDS011;55959;51.244;5.724;2023-03-21T11:28:18;6.50;;;3.00;;
68921;SDS011;55959;51.244;5.724;2023-03-21T11:30:49;2.73;;;2.50;;
68921;SDS011;55959;51.244;5.724;2023-03-21T11:33:21;4.27;;;3.00;;
68921;SDS011;55959;51.244;5.724;2023-03-21T11:36:05;6.63;;;3.03;;
68921;SDS011;55959;51.244;5.724;2023-03-21T11:38:52;6.20;;;3.30;;
68921;SDS011;55959;51.244;5.724;2023-03-21T11:41:30;6.03;;;2.90;;
68921;SDS011;55959;51.244;5.724;2023-03-21T11:43:59;7.43;;;3.60;;
68921;SDS011;55959;51.244;5.724;2023-03-21T11:46:27;5.63;;;2.80;;
68921;SDS011;55959;51.244;5.724;2023-03-21T11:48:56;3.53;;;2.57;;
68921;SDS011;55959;51.244;5.724;2023-03-21T11:51:28;6.03;;;2.87;;
68921;SDS011;55959;51.244;5.724;2023-03-21T12:00:20;4.83;;;2.63;;
68921;SDS011;55959;51.244;5.724;2023-03-21T12:05:52;8.90;;;2.93;;
68921;SDS011;55959;51.244;5.724;2023-03-21T12:17:15;3.27;;;2.00;;
68921;SDS011;55959;51.244;5.724;2023-03-21T12:31:30;2.93;;;1.90;;
68921;SDS011;55959;51.244;5.724;2023-03-21T12:39:51;5.13;;;2.20;;
68921;SDS011;55959;51.244;5.724;2023-03-21T12:42:39;3.57;;;2.50;;
68921;SDS011;55959;51.244;5.724;2023-03-21T12:45:19;3.63;;;2.47;;
68921;SDS011;55959;51.244;5.724;2023-03-21T12:47:59;4.43;;;2.30;;
68921;SDS011;55959;51.244;5.724;2023-03-21T12:50:41;3.43;;;2.00;;
68921;SDS011;55959;51.244;5.724;2023-03-21T12:55:55;5.20;;;2.77;;
68921;SDS011;55959;51.244;5.724;2023-03-21T12:58:27;3.70;;;2.50;;
68921;SDS011;55959;51.244;5.724;2023-03-21T13:00:55;4.10;;;2.80;;
68921;SDS011;55959;51.244;5.724;2023-03-21T13:06:09;4.07;;;2.80;;
68921;SDS011;55959;51.244;5.724;2023-03-21T13:08:46;4.77;;;2.70;;
68921;SDS011;55959;51.244;5.724;2023-03-21T13:11:32;3.30;;;2.40;;
68921;SDS011;55959;51.244;5.724;2023-03-21T13:17:00;6.23;;;3.33;;
68921;SDS011;55959;51.244;5.724;2023-03-21T13:19:35;5.03;;;2.87;;
68921;SDS011;55959;51.244;5.724;2023-03-21T13:22:27;4.27;;;2.30;;
68921;SDS011;55959;51.244;5.724;2023-03-21T13:27:35;4.23;;;2.80;;
68921;SDS011;55959;51.244;5.724;2023-03-21T13:30:24;4.40;;;2.80;;
68921;SDS011;55959;51.244;5.724;2023-03-21T13:33:06;3.87;;;3.40;;
68921;SDS011;55959;51.244;5.724;2023-03-21T13:35:41;3.90;;;3.03;;
68921;SDS011;55959;51.244;5.724;2023-03-21T13:40:48;4.93;;;3.60;;
68921;SDS011;55959;51.244;5.724;2023-03-21T13:43:35;6.30;;;3.70;;
68921;SDS011;55959;51.244;5.724;2023-03-21T13:46:08;3.73;;;3.13;;
68921;SDS011;55959;51.244;5.724;2023-03-21T13:48:42;4.63;;;3.10;;
68921;SDS011;55959;51.244;5.724;2023-03-21T13:59:57;4.33;;;2.80;;
68921;SDS011;55959;51.244;5.724;2023-03-21T14:02:03;4.43;;;2.73;;
68921;SDS011;55959;51.244;5.724;2023-03-21T14:05:04;5.37;;;2.57;;
68921;SDS011;55959;51.244;5.724;2023-03-21T14:07:43;4.80;;;2.80;;
68921;SDS011;55959;51.244;5.724;2023-03-21T14:10:22;5.07;;;2.70;;
68921;SDS011;55959;51.244;5.724;2023-03-21T14:13:06;4.10;;;2.70;;
68921;SDS011;55959;51.244;5.724;2023-03-21T14:15:44;4.73;;;2.40;;
68921;SDS011;55959;51.244;5.724;2023-03-21T14:18:23;4.03;;;3.20;;
68921;SDS011;55959;51.244;5.724;2023-03-21T14:20:51;3.70;;;2.80;;
68921;SDS011;55959;51.244;5.724;2023-03-21T14:23:19;6.07;;;2.90;;
68921;SDS011;55959;51.244;5.724;2023-03-21T14:25:46;4.40;;;2.60;;
68921;SDS011;55959;51.244;5.724;2023-03-21T14:30:45;4.57;;;2.57;;
68921;SDS011;55959;51.244;5.724;2023-03-21T14:36:09;5.77;;;2.70;;
68921;SDS011;55959;51.244;5.724;2023-03-21T14:38:41;3.10;;;2.50;;
68921;SDS011;55959;51.244;5.724;2023-03-21T14:41:26;3.30;;;2.43;;
68921;SDS011;55959;51.244;5.724;2023-03-21T14:43:59;4.77;;;2.80;;
68921;SDS011;55959;51.244;5.724;2023-03-21T14:47:26;4.13;;;2.80;;
68921;SDS011;55959;51.244;5.724;2023-03-21T14:49:50;3.77;;;2.30;;
68921;SDS011;55959;51.244;5.724;2023-03-21T14:52:22;3.63;;;2.63;;
68921;SDS011;55959;51.244;5.724;2023-03-21T14:54:59;4.40;;;2.60;;
68921;SDS011;55959;51.244;5.724;2023-03-21T14:57:31;4.00;;;2.40;;
68921;SDS011;55959;51.244;5.724;2023-03-21T15:00:03;4.33;;;2.80;;
68921;SDS011;55959;51.244;5.724;2023-03-21T15:02:41;4.93;;;2.90;;
68921;SDS011;55959;51.244;5.724;2023-03-21T15:05:21;4.73;;;2.67;;
68921;SDS011;55959;51.244;5.724;2023-03-21T15:07:52;5.67;;;2.40;;
68921;SDS011;55959;51.244;5.724;2023-03-21T15:10:36;3.93;;;2.50;;
68921;SDS011;55959;51.244;5.724;2023-03-21T15:13:19;4.07;;;2.57;;
68921;SDS011;55959;51.244;5.724;2023-03-21T15:15:49;4.10;;;2.60;;
68921;SDS011;55959;51.244;5.724;2023-03-21T15:18:18;4.57;;;2.60;;
68921;SDS011;55959;51.244;5.724;2023-03-21T15:20:54;5.17;;;2.60;;
68921;SDS011;55959;51.244;5.724;2023-03-21T15:23:33;4.33;;;2.93;;
68921;SDS011;55959;51.244;5.724;2023-03-21T15:26:14;6.83;;;2.87;;
68921;SDS011;55959;51.244;5.724;2023-03-21T15:28:44;4.03;;;2.27;;
68921;SDS011;55959;51.244;5.724;2023-03-21T15:31:19;3.47;;;2.60;;
68921;SDS011;55959;51.244;5.724;2023-03-21T15:33:48;4.03;;;2.63;;
68921;SDS011;55959;51.244;5.724;2023-03-21T15:36:32;3.67;;;2.70;;
68921;SDS011;55959;51.244;5.724;2023-03-21T15:39:10;3.67;;;2.63;;
68921;SDS011;55959;51.244;5.724;2023-03-21T15:41:39;3.50;;;2.60;;
68921;SDS011;55959;51.244;5.724;2023-03-21T15:51:44;4.27;;;2.60;;
68921;SDS011;55959;51.244;5.724;2023-03-21T15:54:21;4.50;;;2.50;;
68921;SDS011;55959;51.244;5.724;2023-03-21T15:56:55;3.23;;;2.10;;
68921;SDS011;55959;51.244;5.724;2023-03-21T15:59:26;3.97;;;2.40;;
68921;SDS011;55959;51.244;5.724;2023-03-21T16:01:57;3.53;;;2.20;;
68921;SDS011;55959;51.244;5.724;2023-03-21T16:04:23;2.73;;;2.10;;
68921;SDS011;55959;51.244;5.724;2023-03-21T16:06:58;3.73;;;2.30;;
68921;SDS011;55959;51.244;5.724;2023-03-21T16:09:37;2.50;;;2.13;;
68921;SDS011;55959;51.244;5.724;2023-03-21T16:12:12;2.67;;;2.10;;
68921;SDS011;55959;51.244;5.724;2023-03-21T16:14:39;3.37;;;2.40;;
68921;SDS011;55959;51.244;5.724;2023-03-21T16:20:01;4.37;;;3.07;;
68921;SDS011;55959;51.244;5.724;2023-03-21T16:22:37;3.57;;;2.57;;
68921;SDS011;55959;51.244;5.724;2023-03-21T16:25:03;3.90;;;2.93;;
68921;SDS011;55959;51.244;5.724;2023-03-21T16:27:29;4.90;;;2.80;;
68921;SDS011;55959;51.244;5.724;2023-03-21T16:29:55;3.73;;;2.67;;
68921;SDS011;55959;51.244;5.724;2023-03-21T16:32:21;3.73;;;2.87;;
68921;SDS011;55959;51.244;5.724;2023-03-21T16:34:47;6.97;;;2.77;;
68921;SDS011;55959;51.244;5.724;2023-03-21T16:37:13;4.43;;;2.50;;
68921;SDS011;55959;51.244;5.724;2023-03-21T16:39:42;5.67;;;2.90;;
68921;SDS011;55959;51.244;5.724;2023-03-21T16:42:09;4.63;;;2.60;;
68921;SDS011;55959;51.244;5.724;2023-03-21T16:44:36;5.17;;;2.90;;
68921;SDS011;55959;51.244;5.724;2023-03-21T16:47:03;4.77;;;2.53;;
68921;SDS011;55959;51.244;5.724;2023-03-21T16:49:43;4.13;;;2.57;;
68921;SDS011;55959;51.244;5.724;2023-03-21T16:52:10;3.20;;;2.63;;
68921;SDS011;55959;51.244;5.724;2023-03-21T16:54:37;3.83;;;2.60;;
68921;SDS011;55959;51.244;5.724;2023-03-21T16:57:05;2.40;;;2.20;;
68921;SDS011;55959;51.244;5.724;2023-03-21T16:59:39;3.47;;;2.73;;
68921;SDS011;55959;51.244;5.724;2023-03-21T17:02:10;3.57;;;2.60;;
68921;SDS011;55959;51.244;5.724;2023-03-21T17:04:38;3.43;;;2.43;;
68921;SDS011;55959;51.244;5.724;2023-03-21T17:07:04;4.43;;;2.03;;
68921;SDS011;55959;51.244;5.724;2023-03-21T17:09:38;4.07;;;2.60;;